Time;durP1;ratioP1;P1;durP2;ratioP2;P2;SDS_P1;SDS_P2;PMS_P1;PMS_P2;Temp;Humidity;BMP_temperature;BMP_pressure;BME280_temperature;BME280_humidity;BME280_pressure;Samples;Min_cycle;Max_cycle;Signal;HPM_P1;HPM_P2
2022/06/17 10:52:33;;;;;;;9.52;2.72;;;27.50;63.80;;;;;;5077593;27;1356566;-53
2022/06/17 10:55:00;;;;;;;8.60;2.67;;;27.30;65.30;;;;;;5099240;28;20059;-50
2022/06/17 10:57:26;;;;;;;11.55;2.65;;;27.40;65.00;;;;;;5082177;28;20098;-55
2022/06/17 10:59:53;;;;;;;8.07;3.38;;;27.50;63.60;;;;;;5084020;28;20041;-52
2022/06/17 11:02:20;;;;;;;4.43;2.50;;;27.60;63.80;;;;;;5085958;28;20553;-58
2022/06/17 11:04:47;;;;;;;11.50;3.50;;;27.70;63.00;;;;;;5078813;28;20072;-55
2022/06/17 11:07:13;;;;;;;5.85;2.60;;;27.70;61.80;;;;;;5071267;28;20396;-53
2022/06/17 11:09:41;;;;;;;5.88;2.50;;;27.80;62.40;;;;;;5077542;28;20467;-52
2022/06/17 11:12:08;;;;;;;5.53;3.00;;;27.80;63.10;;;;;;5086585;28;20044;-54
2022/06/17 11:14:35;;;;;;;5.75;2.78;;;27.90;63.90;;;;;;5079976;28;20054;-55
2022/06/17 11:17:02;;;;;;;5.95;2.42;;;28.00;63.40;;;;;;5081219;28;20044;-56
2022/06/17 11:19:29;;;;;;;9.73;2.00;;;28.10;63.00;;;;;;5080183;28;20134;-55
2022/06/17 11:21:56;;;;;;;5.40;1.92;;;28.10;61.90;;;;;;5087383;28;20040;-53
2022/06/17 11:24:23;;;;;;;6.05;2.75;;;28.20;61.80;;;;;;5086479;28;20044;-52
2022/06/17 11:26:50;;;;;;;13.32;2.55;;;28.30;61.60;;;;;;5080762;28;20041;-49
2022/06/17 11:29:16;;;;;;;8.07;2.67;;;28.30;60.80;;;;;;5072587;28;20044;-53
2022/06/17 11:31:46;;;;;;;9.73;2.30;;;28.30;61.30;;;;;;5087235;28;20028;-45
2022/06/17 11:34:14;;;;;;;9.13;2.20;;;28.30;60.90;;;;;;5070128;28;20436;-56
2022/06/17 11:36:40;;;;;;;5.63;2.38;;;28.30;61.70;;;;;;5079913;28;20045;-49
2022/06/17 11:39:07;;;;;;;7.13;1.88;;;28.40;61.70;;;;;;5070457;28;20045;-51
2022/06/17 11:41:34;;;;;;;7.53;2.00;;;28.40;61.70;;;;;;5079676;28;20045;-54
2022/06/17 11:44:01;;;;;;;8.57;2.40;;;28.60;61.20;;;;;;5079507;28;20367;-56
2022/06/17 11:46:29;;;;;;;5.97;1.92;;;28.60;60.30;;;;;;5086516;28;20072;-53
2022/06/17 18:12:02;;;;;;;16.08;3.95;;;33.90;50.80;;;;;;5071305;28;20372;-57
2022/06/17 18:14:29;;;;;;;16.02;3.83;;;33.50;52.10;;;;;;5068388;28;20043;-57
2022/06/17 18:16:56;;;;;;;11.38;4.18;;;33.40;52.20;;;;;;5070346;28;20056;-50
2022/06/17 18:19:23;;;;;;;18.42;4.40;;;33.40;51.30;;;;;;5054498;28;20116;-55
2022/06/17 18:21:50;;;;;;;18.92;4.10;;;33.40;51.80;;;;;;5053466;28;20120;-55
2022/06/17 18:24:17;;;;;;;11.82;3.45;;;33.40;51.40;;;;;;5056916;28;20041;-59
2022/06/17 18:26:46;;;;;;;17.52;4.15;;;33.20;51.30;;;;;;5059184;28;20036;-54
2022/06/17 18:29:13;;;;;;;15.73;4.15;;;33.20;51.60;;;;;;5050809;28;20041;-56
2022/06/17 18:31:40;;;;;;;12.05;4.00;;;33.30;51.60;;;;;;5059525;28;20099;-54
2022/06/17 20:50:58;;;;;;;12.85;3.80;;;25.90;66.30;;;;;;5063781;28;20124;-52
2022/06/17 20:53:25;;;;;;;11.65;4.45;;;25.90;66.20;;;;;;5065094;28;20041;-57
2022/06/17 20:55:52;;;;;;;14.05;3.30;;;25.90;66.40;;;;;;5050376;28;20036;-49
2022/06/17 20:58:19;;;;;;;15.60;3.92;;;25.80;66.80;;;;;;5060238;28;20036;-53
2022/06/17 21:00:45;;;;;;;15.65;3.95;;;25.80;66.90;;;;;;5050212;28;20572;-54
2022/06/17 21:03:12;;;;;;;11.70;4.65;;;25.80;66.90;;;;;;5061760;28;20483;-48
2022/06/17 21:05:39;;;;;;;13.10;4.00;;;25.80;67.00;;;;;;5069822;28;20487;-49
2022/06/17 21:08:06;;;;;;;12.75;3.95;;;25.80;67.10;;;;;;5056676;28;20091;-48
2022/06/17 21:10:35;;;;;;;14.43;3.90;;;25.80;67.30;;;;;;5050478;28;20037;-50
2022/06/17 21:13:08;;;;;;;12.32;3.97;;;25.70;67.40;;;;;;5050744;28;20392;-52
2022/06/17 21:15:35;;;;;;;11.18;3.38;;;25.70;67.40;;;;;;5050371;28;20095;-53
2022/06/17 21:18:02;;;;;;;16.65;3.75;;;25.60;67.80;;;;;;5054013;28;20476;-53
2022/06/17 21:20:29;;;;;;;11.27;3.45;;;25.60;67.90;;;;;;5050152;28;20037;-54
2022/06/17 21:22:56;;;;;;;11.48;3.33;;;25.50;68.00;;;;;;5059083;28;20086;-53
2022/06/17 21:25:23;;;;;;;12.60;3.38;;;25.40;67.90;;;;;;5057899;28;20041;-60
2022/06/17 21:27:50;;;;;;;14.02;4.00;;;25.40;68.20;;;;;;5067755;28;20063;-53
2022/06/17 21:30:16;;;;;;;13.13;4.32;;;25.40;68.20;;;;;;5048690;28;20041;-52
2022/06/17 21:32:43;;;;;;;12.90;3.58;;;25.40;68.30;;;;;;5059534;28;20047;-55
2022/06/17 21:35:10;;;;;;;10.23;3.65;;;25.40;68.40;;;;;;5049413;28;20080;-55
2022/06/17 21:37:37;;;;;;;11.13;3.50;;;25.30;68.70;;;;;;5049491;28;20083;-54
2022/06/17 21:40:03;;;;;;;15.25;4.10;;;25.20;68.80;;;;;;5049796;28;20037;-52
2022/06/17 21:42:30;;;;;;;10.68;3.13;;;25.20;68.90;;;;;;5069175;28;20120;-53
2022/06/17 21:44:57;;;;;;;14.75;3.55;;;25.20;69.20;;;;;;5064390;28;20443;-53
2022/06/17 21:47:24;;;;;;;11.07;3.58;;;25.10;69.10;;;;;;5051802;28;20041;-53
2022/06/17 21:49:50;;;;;;;17.02;4.00;;;25.10;69.30;;;;;;5051850;28;20045;-55
2022/06/17 21:52:17;;;;;;;12.25;3.60;;;25.00;69.40;;;;;;5050980;28;20083;-49
2022/06/17 21:54:44;;;;;;;13.73;4.07;;;25.00;69.50;;;;;;5048177;28;20056;-54
2022/06/17 21:57:11;;;;;;;14.20;4.32;;;24.90;69.90;;;;;;5036108;28;20045;-54
2022/06/17 21:59:38;;;;;;;13.85;3.85;;;24.90;69.90;;;;;;5036344;28;20069;-60
2022/06/17 22:02:05;;;;;;;13.32;3.47;;;24.80;70.60;;;;;;5047358;28;20044;-56
2022/06/17 22:04:32;;;;;;;11.73;3.55;;;24.80;70.10;;;;;;5041508;28;20095;-56
2022/06/17 22:06:59;;;;;;;13.23;4.40;;;24.80;70.30;;;;;;5051026;28;20036;-58
2022/06/17 22:09:26;;;;;;;12.77;4.28;;;24.80;70.90;;;;;;5054524;28;20041;-52
2022/06/17 22:11:59;;;;;;;11.77;4.15;;;24.70;70.50;;;;;;5054000;28;20044;-53
2022/06/17 22:14:26;;;;;;;12.30;4.25;;;24.70;70.60;;;;;;5051940;28;20037;-56
2022/06/17 22:16:52;;;;;;;17.70;4.55;;;24.60;70.60;;;;;;5041712;28;20170;-54
2022/06/17 22:19:19;;;;;;;13.15;4.78;;;24.60;70.80;;;;;;5040546;28;20069;-51
2022/06/17 22:21:46;;;;;;;13.45;4.68;;;24.50;71.00;;;;;;5035819;28;20072;-52
2022/06/17 22:24:13;;;;;;;13.65;4.40;;;24.50;71.20;;;;;;5043079;28;20469;-52
2022/06/17 22:26:39;;;;;;;15.15;4.80;;;24.40;71.40;;;;;;5043550;28;20038;-54
2022/06/17 22:29:06;;;;;;;10.82;3.80;;;24.40;71.60;;;;;;5049752;28;20391;-54
2022/06/17 22:31:33;;;;;;;11.55;4.32;;;24.40;71.70;;;;;;5048948;28;20041;-53
2022/06/17 22:34:00;;;;;;;13.40;4.18;;;24.30;71.90;;;;;;5052838;28;20037;-55
2022/06/17 22:36:26;;;;;;;10.18;4.03;;;24.30;71.80;;;;;;5050339;28;20041;-58
2022/06/17 22:38:53;;;;;;;18.75;4.20;;;24.30;72.10;;;;;;5038857;28;20096;-58
2022/06/17 22:41:20;;;;;;;11.68;3.80;;;24.20;72.20;;;;;;5038325;28;20049;-56
2022/06/17 22:43:47;;;;;;;11.20;4.25;;;24.20;72.50;;;;;;5044596;28;20134;-58
2022/06/17 22:46:14;;;;;;;13.60;4.10;;;24.20;72.60;;;;;;5054605;28;20041;-56
2022/06/17 22:48:41;;;;;;;12.38;3.90;;;24.20;72.70;;;;;;5053327;28;20044;-51
2022/06/17 22:51:09;;;;;;;12.40;4.25;;;24.10;73.00;;;;;;5051527;28;20079;-55
2022/06/17 22:53:36;;;;;;;11.25;4.03;;;24.00;73.10;;;;;;5052131;28;20095;-56
2022/06/17 22:56:02;;;;;;;8.23;3.92;;;24.00;73.50;;;;;;5043919;28;20111;-53
2022/06/17 22:58:30;;;;;;;16.95;4.72;;;24.00;73.90;;;;;;5035212;28;20037;-54
2022/06/17 23:00:57;;;;;;;11.75;3.95;;;23.90;74.00;;;;;;5036000;28;20435;-50
